METAR Data
IDs: Format: Raw Decoded Include TAF

Data at: 1853 UTC 14 Dec 2018

KGNC 141835Z AUTO 34015KT 10SM CLR 10/M13 A3037 RMK AO2 T00961132
KGNC 141815Z AUTO 35013KT 10SM CLR 09/M12 A3038 RMK AO2 T00901117
KGNC 141755Z AUTO 35014G19KT 10SM CLR 08/M12 A3039 RMK AO2 T00841116 10084 21020
KGNC 141735Z AUTO 35017KT 10SM CLR 08/M12 A3040 RMK AO2 T00771119
KGNC 141715Z AUTO 36017G22KT 10SM CLR 07/M13 A3041 RMK AO2 T00711128
KGNC 141655Z AUTO 35015G22KT 10SM CLR 07/M12 A3040 RMK AO2 T00661120
KGNC 141635Z AUTO 35015G24KT 10SM CLR 06/M12 A3040 RMK AO2 T00601121
KGNC 141615Z AUTO 35017G23KT 10SM CLR 06/M12 A3039 RMK AO2 T00571120
KGNC 141555Z AUTO 34018G21KT 10SM CLR 05/M12 A3039 RMK AO2 T00501121
KGNC 141535Z AUTO 33013KT 10SM CLR 03/M11 A3038 RMK AO2 T00321112
KGNC 141515Z AUTO 32009KT 10SM CLR 02/M11 A3038 RMK AO2 T00201111
KGNC 141455Z AUTO 32010KT 10SM CLR 00/M10 A3037 RMK AO2 T00041105
KGNC 141435Z AUTO 33010KT 10SM CLR 00/M10 A3036 RMK AO2 T10041102
KGNC 141415Z AUTO 32010KT 10SM CLR M01/M10 A3036 RMK AO2 T10101102
KGNC 141355Z AUTO 32009KT 10SM CLR M02/M10 A3034 RMK AO2 T10171100
KGNC 141335Z AUTO 33010G17KT 10SM CLR M02/M10 A3034 RMK AO2 T10171100
KGNC 141315Z AUTO 32011G16KT 10SM CLR M02/M10 A3034 RMK AO2 T10171100
KGNC 141255Z AUTO 32009G15KT 10SM CLR M02/M10 A3032 RMK AO2 T10171100
KGNC 141235Z AUTO 32009KT 10SM CLR M01/M10 A3032 RMK AO2 T10151101
KGNC 141215Z AUTO 33012G18KT 10SM CLR M01/M10 A3031 RMK AO2 T10121103
KGNC 141155Z AUTO 32010KT 10SM CLR M01/M10 A3029 RMK AO2 70002 T10141101 10002 21014
KGNC 141135Z AUTO 33013G18KT 10SM CLR M01/M10 A3028 RMK AO2 T10071105
KGNC 141115Z AUTO 33014KT 10SM CLR 00/M11 A3028 RMK AO2 T10021107
KGNC 141055Z AUTO 34015G19KT 10SM CLR 00/M10 A3028 RMK AO2 T10051105
KGNC 141035Z AUTO 34015G18KT 10SM CLR M01/M10 A3028 RMK AO2 T10061103
KGNC 141015Z AUTO 34015G19KT 10SM CLR 00/M10 A3028 RMK AO2 T10051103
KGNC 140955Z AUTO 33015G19KT 10SM CLR 00/M10 A3028 RMK AO2 T10051103
KGNC 140935Z AUTO 33013G17KT 10SM CLR 00/M10 A3028 RMK AO2 T10051102
KGNC 140915Z AUTO 33013G18KT 10SM CLR 00/M10 A3029 RMK AO2 T10051099
KGNC 140855Z AUTO 33011G16KT 10SM CLR M01/M10 A3029 RMK AO2 T10071096
KGNC 140835Z AUTO 33013KT 10SM CLR M01/M09 A3028 RMK AO2 T10081094
KGNC 140815Z AUTO 33011KT 10SM CLR M01/M09 A3028 RMK AO2 T10071093
KGNC 140755Z AUTO 32011KT 10SM CLR M01/M09 A3028 RMK AO2 T10101090
KGNC 140735Z AUTO 32010G15KT 10SM CLR 00/M09 A3028 RMK AO2 T00001095
KGNC 140715Z AUTO 33011KT 10SM CLR 00/M09 A3028 RMK AO2 T00001092
KGNC 140655Z AUTO 33011G15KT 10SM CLR 00/M09 A3028 RMK AO2 T10011090
KGNC 140635Z AUTO 33010KT 10SM CLR 00/M09 A3028 RMK AO2 T10021088
KGNC 140615Z AUTO 33010KT 10SM CLR 00/M09 A3028 RMK AO2 T00001090
KGNC 140555Z AUTO 33009KT 10SM CLR 00/M09 A3028 RMK AO2 T00041093 10070 20004 400970004
KGNC 140535Z AUTO 34014G19KT 10SM CLR 02/M10 A3027 RMK AO2 T00151100
KGNC 140515Z AUTO 34014G21KT 10SM CLR 02/M11 A3026 RMK AO2 T00221106
KGNC 140455Z AUTO 35016G22KT 10SM CLR 02/M11 A3026 RMK AO2 T00231106
KGNC 140435Z AUTO 34012G16KT 10SM CLR 02/M09 A3026 RMK AO2 T00151092
KGNC 140415Z AUTO 34012KT 10SM CLR 02/M09 A3026 RMK AO2 T00171092
KGNC 140355Z AUTO 33009KT 10SM CLR 02/M09 A3026 RMK AO2 T00201093
KGNC 140335Z AUTO 33010G14KT 10SM CLR 02/M09 A3025 RMK AO2 T00221092
KGNC 140315Z AUTO 33011KT 10SM CLR 03/M09 A3025 RMK AO2 T00261093
KGNC 140255Z AUTO 33010KT 10SM CLR 03/M09 A3023 RMK AO2 T00261091
KGNC 140235Z AUTO 33010KT 10SM CLR 03/M09 A3023 RMK AO2 T00311093
KGNC 140215Z AUTO 32008KT 10SM CLR 03/M09 A3022 RMK AO2 T00331093
KGNC 140155Z AUTO 33010KT 10SM CLR 04/M10 A3022 RMK AO2 T00401099
KGNC 140135Z AUTO 33011G18KT 10SM CLR 05/M10 A3021 RMK AO2 T00471102
KGNC 140115Z AUTO 34015G21KT 10SM CLR 05/M10 A3020 RMK AO2 T00531104
KGNC 140055Z AUTO 34016KT 10SM CLR 06/M11 A3018 RMK AO2 T00551106
KGNC 140035Z AUTO 34019G28KT 10SM CLR 07/M11 A3017 RMK AO2 T00651111
KGNC 140015Z AUTO 34018G26KT 10SM CLR 07/M11 A3016 RMK AO2 T00661111
KGNC 132355Z AUTO 34022G31KT 10SM CLR 07/M11 A3016 RMK AO2 T00701114 10090 20056
KGNC 132335Z AUTO 34021G28KT 7SM CLR 07/M11 A3015 RMK AO2 T00731112
KGNC 132315Z AUTO 33021G26KT 10SM SCT036 08/M11 A3014 RMK AO2 T00771110
KGNC 132255Z AUTO 35018G29KT 7SM SCT032 BKN038 08/M11 A3013 RMK AO2 T00811112
KGNC 132235Z AUTO 35025G35KT 7SM BKN030 OVC040 09/M12 A3012 RMK AO2 T00851116
KGNC 132215Z AUTO 34027G36KT 7SM BKN038 09/M11 A3012 RMK AO2 T00891106
KGNC 132155Z AUTO 35025G38KT 7SM SCT036 09/M10 A3011 RMK AO2 T00891097
KGNC 132135Z AUTO 35027G37KT 10SM SCT036 09/M09 A3010 RMK AO2 T00871091
KGNC 132115Z AUTO 35029G41KT 7SM SCT025 BKN034 09/M09 A3010 RMK AO2 T00881089
KGNC 132055Z AUTO 36032G44KT 7SM SCT023 OVC032 09/M09 A3010 RMK AO2 T00851087
KGNC 132035Z AUTO 35031G43KT 7SM OVC030 08/M08 A3009 RMK AO2 T00831081
KGNC 132015Z AUTO 35027G39KT 7SM BKN031 09/M07 A3009 RMK AO2 T00871072
KGNC 131955Z AUTO 36032G42KT 7SM CLR 08/M08 A3009 RMK AO2 T00811079
KGNC 131935Z AUTO 35033G41KT 10SM SCT090 08/M08 A3008 RMK AO2 T00801076
KGNC 131915Z AUTO 36027G34KT 10SM SCT090 SCT120 08/M06 A3008 RMK AO2 T00811062
KGNC 131855Z AUTO 36031G40KT 10SM SCT110 07/M06 A3009 RMK AO2 T00701062
KGNC 131830Z AUTO 35027G39KT 10SM SCT050 SCT075 07/M05 A3009 RMK AO2 T00661055
KGNC 131815Z AUTO 35022G38KT 10SM SCT041 BKN050 06/M05 A3010 RMK AO2 T00611049
KGNC 131755Z AUTO 35029G36KT 10SM BKN038 BKN048 06/M04 A3010 RMK AO2 60002 T00561041 10056 20008
KGNC 131735Z AUTO 35022G38KT 10SM SCT032 BKN039 OVC046 06/M03 A3010 RMK AO2 T00551033
KGNC 131715Z AUTO 36027G40KT 10SM SCT032 OVC040 05/M03 A3010 RMK AO2 T00471028
KGNC 131655Z AUTO 36022G40KT 10SM SCT024 BKN032 OVC040 04/M01 A3009 RMK AO2 T00411015
KGNC 131635Z AUTO 35024G34KT 10SM SCT022 BKN030 OVC042 04/M01 A3009 RMK AO2 T00361008
KGNC 131615Z AUTO 35026G32KT 10SM -RA SCT020 BKN031 OVC044 03/00 A3008 RMK AO2 T00290000
KGNC 131555Z AUTO 34020G29KT 7SM -RA SCT024 BKN033 OVC046 03/01 A3006 RMK AO2 T00250011
KGNC 131535Z AUTO 35023G33KT 10SM RA SCT022 BKN041 OVC047 03/00 A3004 RMK AO2 T00260004
KGNC 131515Z AUTO 35030G40KT 10SM SCT017 BKN028 OVC038 03/00 A3002 RMK AO2 T00300002
KGNC 131455Z AUTO 36025G35KT 7SM -RA BKN015 OVC031 03/02 A3000 RMK AO2 P0001 60002 T00260016
KGNC 131435Z AUTO 36025G36KT 7SM -RA OVC013 02/02 A2998 RMK AO2 P0001 T00220021
KGNC 131415Z AUTO 35019G26KT 7SM -RA OVC011 02/02 A2996 RMK AO2 P0001 T00150015
KGNC 131355Z AUTO 34017G22KT 5SM RA OVC011 01/01 A2994 RMK AO2 P0001 T00100010
KGNC 131335Z AUTO 36022G31KT 7SM -RA OVC013 01/01 A2992 RMK AO2 T00110011
KGNC 131315Z AUTO 36032G39KT 7SM -RA SCT007 OVC013 02/01 A2987 RMK AO2 T00180012
KGNC 131255Z AUTO 01028G37KT 10SM -RA SCT007 BKN013 OVC085 02/01 A2986 RMK AO2 T00190005
KGNC 131235Z AUTO 01024G33KT 10SM SCT017 BKN095 OVC120 03/01 A2985 RMK AO2 T00330010
KGNC 131215Z AUTO 35021G27KT 10SM SCT033 BKN050 OVC085 04/01 A2985 RMK AO2 T00350006
KGNC 131155Z AUTO 34023G30KT 10SM SCT027 SCT035 OVC044 05/00 A2985 RMK AO2 T00450000 10097 20045
KGNC 131135Z AUTO 34019G35KT 10SM SCT031 BKN042 OVC055 05/M01 A2985 RMK AO2 T00511010
KGNC 131115Z AUTO 33023G33KT 10SM SCT035 BKN060 OVC070 07/M02 A2982 RMK AO2 T00691025
KGNC 131055Z AUTO 32019G27KT 10SM SCT041 SCT055 OVC080 07/M03 A2981 RMK AO2 T00711030
KGNC 131035Z AUTO 31023G34KT 10SM BKN070 OVC080 07/M03 A2980 RMK AO2 T00731026
KGNC 131015Z AUTO 30025G30KT 10SM OVC070 08/M01 A2980 RMK AO2 T00811006
KGNC 130955Z AUTO 30020G25KT 10SM BKN060 09/01 A2979 RMK AO2 T00850012
KGNC 130935Z AUTO 29017G27KT 10SM SCT070 SCT090 SCT110 09/02 A2979 RMK AO2 T00890023
KGNC 130915Z AUTO 28012G18KT 10SM SCT070 BKN090 OVC110 10/03 A2978 RMK AO2 T00960029
KGNC 130855Z AUTO 29012KT 10SM SCT070 OVC090 10/03 A2976 RMK AO2 T00960032
KGNC 130835Z AUTO 27009KT 10SM OVC100 08/04 A2977 RMK AO2 T00790041
KGNC 130815Z AUTO 28009KT 10SM BKN095 08/04 A2976 RMK AO2 T00750044
KGNC 130755Z AUTO 24010KT 10SM SCT095 08/05 A2974 RMK AO2 T00790045
KGNC 130735Z AUTO 23010KT 10SM CLR 08/05 A2974 RMK AO2 T00800045
KGNC 130715Z AUTO 23008KT 10SM CLR 08/05 A2975 RMK AO2 T00810046
KGNC 130655Z AUTO 23010KT 10SM CLR 09/05 A2975 RMK AO2 T00860048